createdAt,value
2023-01-17T00:02:08.824Z,17.33
2023-01-17T00:04:54.599Z,18.33
2023-01-17T00:07:42.962Z,21.30
2023-01-17T00:10:14.186Z,18.83
2023-01-17T00:12:47.818Z,18.90
2023-01-17T00:15:16.693Z,15.80
2023-01-17T00:17:45.031Z,18.63
2023-01-17T00:20:32.733Z,17.97
2023-01-17T00:23:20.081Z,17.37
2023-01-17T00:26:06.702Z,16.33
2023-01-17T00:28:36.076Z,17.27
2023-01-17T00:31:04.407Z,15.47
2023-01-17T00:33:31.515Z,15.87
2023-01-17T00:35:59.355Z,14.30
2023-01-17T00:38:29.774Z,17.27
2023-01-17T00:41:02.190Z,14.20
2023-01-17T00:43:48.465Z,15.47
2023-01-17T00:46:34.391Z,14.40
2023-01-17T00:49:20.133Z,11.67
2023-01-17T00:52:05.580Z,13.53
2023-01-17T00:54:52.388Z,10.40
2023-01-17T00:57:38.374Z,8.07
2023-01-17T01:00:25.113Z,9.17
2023-01-17T01:03:10.477Z,8.17
2023-01-17T01:05:57.120Z,6.53
2023-01-17T01:08:44.874Z,6.17
2023-01-17T01:11:33.826Z,5.33
2023-01-17T01:14:20.254Z,6.37
2023-01-17T01:17:06.141Z,3.90
2023-01-17T01:19:51.796Z,4.27
2023-01-17T01:22:37.591Z,4.67
2023-01-17T01:25:23.752Z,5.90
2023-01-17T01:28:10.657Z,3.20
2023-01-17T01:30:56.575Z,1.90
2023-01-17T01:33:23.668Z,7.47
2023-01-17T01:35:53.870Z,4.80
2023-01-17T01:38:24.426Z,2.57
2023-01-17T01:40:54.725Z,3.07
2023-01-17T01:43:42.892Z,3.30
2023-01-17T01:46:14.567Z,7.07
2023-01-17T01:48:47.394Z,1.67
2023-01-17T01:51:20.579Z,6.90
2023-01-17T01:53:53.573Z,7.33
2023-01-17T01:56:24.361Z,4.00
2023-01-17T01:58:55.165Z,2.97
2023-01-17T02:01:23.480Z,4.33
2023-01-17T02:03:51.993Z,4.77
2023-01-17T02:06:30.540Z,2.20
2023-01-17T02:09:02.969Z,6.70
2023-01-17T02:11:32.001Z,6.80
2023-01-17T02:14:01.880Z,9.93
2023-01-17T02:16:39.492Z,11.60
2023-01-17T02:19:30.982Z,10.77
2023-01-17T02:22:14.046Z,7.63
2023-01-17T02:25:02.298Z,11.47
2023-01-17T02:27:39.068Z,7.63
2023-01-17T02:30:31.635Z,11.37
2023-01-17T02:33:18.927Z,8.20
2023-01-17T02:35:58.085Z,8.97
2023-01-17T02:38:35.210Z,9.63
2023-01-17T02:41:07.953Z,10.83
2023-01-17T02:43:38.383Z,6.37
2023-01-17T02:46:09.832Z,14.10
2023-01-17T02:48:39.721Z,13.10
2023-01-17T02:51:39.964Z,8.13
2023-01-17T02:54:33.206Z,8.63
2023-01-17T02:57:14.805Z,9.23
2023-01-17T02:59:54.415Z,7.03
2023-01-17T03:02:32.054Z,9.57
2023-01-17T03:05:05.364Z,6.10
2023-01-17T03:07:35.164Z,8.13
2023-01-17T03:10:06.649Z,8.17
2023-01-17T03:12:38.864Z,5.93
2023-01-17T03:15:11.491Z,7.07
2023-01-17T03:17:44.039Z,9.00
2023-01-17T03:20:13.149Z,6.57
2023-01-17T03:22:41.631Z,8.17
2023-01-17T03:25:10.279Z,11.17
2023-01-17T03:27:38.759Z,12.80
2023-01-17T03:30:08.174Z,11.33
2023-01-17T03:32:36.566Z,11.83
2023-01-17T03:35:07.132Z,8.27
2023-01-17T03:37:35.413Z,10.50
2023-01-17T03:40:03.743Z,9.87
2023-01-17T03:42:31.971Z,13.57
2023-01-17T03:45:00.237Z,12.57
2023-01-17T03:47:28.521Z,9.93
2023-01-17T03:49:56.800Z,9.20
2023-01-17T03:52:26.437Z,5.17
2023-01-17T03:54:54.774Z,10.73
2023-01-17T03:57:23.014Z,10.27
2023-01-17T03:59:51.315Z,8.73
2023-01-17T04:02:19.873Z,16.87
2023-01-17T04:04:48.190Z,11.67
2023-01-17T04:07:16.461Z,13.70
2023-01-17T04:09:46.174Z,13.50
2023-01-17T04:12:14.506Z,7.43
2023-01-17T04:14:42.738Z,9.83
2023-01-17T04:17:13.133Z,14.63
2023-01-17T04:19:42.234Z,13.23
2023-01-17T04:22:10.487Z,12.63
2023-01-17T04:24:38.760Z,13.80
2023-01-17T04:27:09.205Z,12.17
2023-01-17T04:29:37.445Z,11.63
2023-01-17T04:32:06.240Z,8.60
2023-01-17T04:34:34.499Z,14.83
2023-01-17T04:37:02.786Z,11.57
2023-01-17T04:39:31.051Z,11.73
2023-01-17T04:41:59.339Z,11.07
2023-01-17T04:44:28.954Z,17.20
2023-01-17T04:46:57.281Z,15.10
2023-01-17T04:49:25.513Z,14.63
2023-01-17T04:51:53.811Z,6.70
2023-01-17T04:54:22.149Z,5.17
2023-01-17T04:56:50.417Z,10.27
2023-01-17T04:59:18.755Z,5.70
2023-01-17T05:01:49.531Z,8.83
2023-01-17T05:04:18.031Z,15.23
2023-01-17T05:06:46.603Z,12.17
2023-01-17T05:09:15.122Z,12.83
2023-01-17T05:11:43.513Z,5.60
2023-01-17T05:14:12.378Z,12.63
2023-01-17T05:16:40.643Z,10.70
2023-01-17T05:19:10.583Z,11.90
2023-01-17T05:21:39.192Z,8.40
2023-01-17T05:24:08.622Z,8.97
2023-01-17T05:26:37.176Z,11.50
2023-01-17T05:29:05.451Z,5.03
2023-01-17T05:31:34.137Z,10.07
2023-01-17T05:34:02.405Z,8.90
2023-01-17T05:36:32.247Z,6.97
2023-01-17T05:39:00.815Z,11.33
2023-01-17T05:41:29.386Z,12.73
2023-01-17T05:43:57.899Z,13.33
2023-01-17T05:46:26.307Z,13.20
2023-01-17T05:48:54.607Z,14.87
2023-01-17T05:51:22.968Z,13.70
2023-01-17T05:53:52.633Z,11.43
2023-01-17T05:56:21.043Z,9.67
2023-01-17T05:58:49.443Z,9.37
2023-01-17T06:01:17.950Z,5.53
2023-01-17T06:03:46.439Z,5.70
2023-01-17T06:06:15.047Z,7.47
2023-01-17T06:08:43.299Z,12.30
2023-01-17T06:11:13.084Z,10.40
2023-01-17T06:13:41.510Z,10.03
2023-01-17T06:16:10.311Z,7.03
2023-01-17T06:18:38.596Z,13.13
2023-01-17T06:21:07.364Z,5.37
2023-01-17T06:23:35.753Z,7.03
2023-01-17T06:26:04.865Z,4.80
2023-01-17T06:28:34.654Z,11.60
2023-01-17T06:31:07.881Z,5.20
2023-01-17T06:33:36.307Z,2.33
2023-01-17T06:36:05.473Z,4.47
2023-01-17T06:38:34.633Z,4.30
2023-01-17T06:41:05.400Z,7.93
2023-01-17T06:43:35.271Z,8.30
2023-01-17T06:46:03.754Z,6.73
2023-01-17T06:48:32.569Z,9.37
2023-01-17T06:51:00.984Z,5.97
2023-01-17T06:53:29.461Z,12.77
2023-01-17T06:55:58.538Z,5.90
2023-01-17T06:58:27.020Z,7.23
2023-01-17T07:00:56.871Z,5.67
2023-01-17T07:03:27.337Z,7.80
2023-01-17T07:05:56.530Z,5.00
2023-01-17T07:08:24.630Z,7.43
2023-01-17T07:10:52.657Z,5.37
2023-01-17T07:13:20.714Z,7.23
2023-01-17T07:15:48.840Z,5.80
2023-01-17T07:18:20.694Z,6.93
2023-01-17T07:20:49.980Z,6.40
2023-01-17T07:23:18.405Z,4.83
2023-01-17T07:25:52.660Z,4.63
2023-01-17T07:28:20.843Z,9.67
2023-01-17T07:30:49.106Z,5.20
2023-01-17T07:33:18.706Z,6.87
2023-01-17T07:35:47.367Z,7.80
2023-01-17T07:38:17.286Z,9.53
2023-01-17T07:40:46.211Z,7.60
2023-01-17T07:43:14.906Z,10.70
2023-01-17T07:45:43.923Z,10.07
2023-01-17T07:48:13.091Z,7.57
2023-01-17T07:50:42.614Z,8.67
2023-01-17T07:53:11.253Z,5.57
2023-01-17T07:55:39.361Z,7.17
2023-01-17T07:58:07.428Z,7.20
2023-01-17T08:00:35.461Z,8.63
2023-01-17T08:03:03.655Z,9.40
2023-01-17T08:05:31.893Z,9.20
2023-01-17T08:08:01.312Z,7.60
2023-01-17T08:10:29.343Z,12.77
2023-01-17T08:12:57.341Z,8.20
2023-01-17T08:15:26.664Z,7.87
2023-01-17T08:17:54.694Z,6.60
2023-01-17T08:20:23.402Z,8.47
2023-01-17T08:22:54.648Z,5.67
2023-01-17T08:25:24.989Z,5.43
2023-01-17T08:27:57.464Z,11.53
2023-01-17T08:30:25.840Z,4.73
2023-01-17T08:32:53.984Z,9.90
2023-01-17T08:35:22.787Z,4.77
2023-01-17T08:37:55.632Z,13.47
2023-01-17T08:40:25.514Z,4.70
2023-01-17T08:42:56.897Z,6.53
2023-01-17T08:45:25.153Z,9.80
2023-01-17T08:47:53.676Z,9.07
2023-01-17T08:50:21.922Z,4.70
2023-01-17T08:52:50.709Z,1.90
2023-01-17T08:55:19.074Z,3.07
2023-01-17T08:57:48.484Z,8.00
2023-01-17T09:00:17.368Z,12.93
2023-01-17T09:02:45.416Z,7.73
2023-01-17T09:05:13.592Z,9.37
2023-01-17T09:07:41.660Z,4.63
2023-01-17T09:10:10.889Z,5.67
2023-01-17T09:12:40.361Z,8.00
2023-01-17T09:15:10.655Z,3.90
2023-01-17T09:17:38.685Z,10.33
2023-01-17T09:20:08.076Z,7.20
2023-01-17T09:22:37.743Z,7.87
2023-01-17T09:25:06.764Z,6.87
2023-01-17T09:27:34.802Z,6.93
2023-01-17T09:30:02.896Z,5.77
2023-01-17T09:32:32.279Z,8.87
2023-01-17T09:35:00.809Z,4.57
2023-01-17T09:37:29.056Z,6.43
2023-01-17T09:39:57.112Z,7.33
2023-01-17T09:42:34.486Z,12.60
2023-01-17T09:45:02.654Z,8.87
2023-01-17T09:47:39.323Z,5.70
2023-01-17T09:50:26.349Z,6.43
2023-01-17T09:53:00.677Z,7.07
2023-01-17T09:55:32.976Z,8.80
2023-01-17T09:58:05.925Z,9.07
2023-01-17T10:00:43.769Z,9.88
2023-01-17T10:03:38.719Z,8.07
2023-01-17T10:06:42.283Z,10.20
2023-01-17T10:09:40.098Z,7.35
2023-01-17T10:12:21.068Z,11.38
2023-01-17T10:15:03.115Z,9.40
2023-01-17T10:17:41.836Z,6.63
2023-01-17T10:20:25.737Z,6.65
2023-01-17T10:23:18.516Z,8.15
2023-01-17T10:25:49.686Z,7.97
2023-01-17T10:28:19.621Z,7.53
2023-01-17T10:30:50.888Z,5.72
2023-01-17T10:33:21.812Z,5.32
2023-01-17T10:35:57.029Z,7.43
2023-01-17T10:38:32.759Z,5.93
2023-01-17T10:41:05.809Z,5.30
2023-01-17T10:43:45.484Z,5.18
2023-01-17T10:46:18.496Z,10.43
2023-01-17T10:48:49.571Z,7.38
2023-01-17T10:51:44.865Z,8.05
2023-01-17T10:54:23.699Z,6.50
2023-01-17T10:56:51.762Z,7.40
2023-01-17T10:59:28.579Z,6.35
2023-01-17T11:01:56.686Z,8.45
2023-01-17T11:04:32.233Z,2.25
2023-01-17T11:07:16.744Z,3.15
2023-01-17T11:09:46.597Z,6.55
2023-01-17T11:12:28.965Z,5.70
2023-01-17T11:15:06.061Z,1.33
2023-01-17T11:17:37.321Z,2.85
2023-01-17T11:20:17.117Z,1.80
2023-01-17T11:23:02.463Z,1.30
2023-01-17T11:25:34.410Z,4.28
2023-01-17T11:28:05.460Z,4.38
2023-01-17T11:30:34.343Z,1.35
2023-01-17T11:33:06.168Z,1.65
2023-01-17T11:35:36.697Z,3.10
2023-01-17T11:38:12.742Z,6.22
2023-01-17T11:40:43.038Z,2.83
2023-01-17T11:43:23.837Z,4.95
2023-01-17T11:46:07.144Z,1.60
2023-01-17T11:48:37.544Z,1.45
2023-01-17T11:51:18.536Z,1.50
2023-01-17T11:53:49.292Z,3.53
2023-01-17T11:56:30.658Z,5.22
2023-01-17T11:59:27.400Z,5.28
2023-01-17T12:02:31.803Z,7.50
2023-01-17T12:05:10.133Z,4.93
2023-01-17T12:07:48.992Z,5.40
2023-01-17T12:10:24.634Z,7.35
2023-01-17T12:13:18.234Z,3.05
2023-01-17T12:16:00.006Z,8.77
2023-01-17T12:18:37.341Z,4.82
2023-01-17T12:21:18.022Z,5.55
2023-01-17T12:24:00.161Z,5.72
2023-01-17T12:26:36.261Z,9.23
2023-01-17T12:29:43.899Z,5.43
2023-01-17T12:32:25.878Z,7.45
2023-01-17T12:34:58.459Z,7.88
2023-01-17T12:37:34.566Z,8.75
2023-01-17T12:40:06.486Z,6.30
2023-01-17T12:42:42.653Z,6.35
2023-01-17T12:45:14.723Z,8.25
2023-01-17T12:47:46.432Z,6.72
2023-01-17T12:50:22.627Z,9.93
2023-01-17T12:53:00.224Z,10.48
2023-01-17T12:55:36.952Z,7.03
2023-01-17T12:58:13.794Z,6.95
2023-01-17T13:00:44.701Z,6.70
2023-01-17T13:03:20.358Z,9.40
2023-01-17T13:05:48.878Z,5.93
2023-01-17T13:08:25.964Z,7.80
2023-01-17T13:10:58.719Z,6.10
2023-01-17T13:13:30.071Z,9.18
2023-01-17T13:16:03.275Z,6.82
2023-01-17T13:18:33.297Z,7.32
2023-01-17T13:21:14.839Z,5.47
2023-01-17T13:24:06.023Z,5.15
2023-01-17T13:27:01.415Z,6.65
2023-01-17T13:29:41.212Z,6.63
2023-01-17T13:32:18.572Z,12.07
2023-01-17T13:35:04.152Z,4.43
2023-01-17T13:37:53.994Z,3.63
2023-01-17T13:40:30.428Z,5.80
2023-01-17T13:43:00.817Z,7.05
2023-01-17T13:45:32.160Z,7.03
2023-01-17T13:48:28.982Z,6.90
2023-01-17T13:50:58.525Z,10.38
2023-01-17T13:53:48.674Z,5.15
2023-01-17T13:56:26.352Z,8.45
2023-01-17T13:59:02.577Z,10.10
2023-01-17T14:01:54.412Z,4.75
2023-01-17T14:04:23.683Z,5.05
2023-01-17T14:07:01.123Z,9.77
2023-01-17T14:09:41.423Z,11.27
2023-01-17T14:12:33.692Z,5.65
2023-01-17T14:15:03.709Z,3.60
2023-01-17T14:17:55.812Z,5.53
2023-01-17T14:20:52.266Z,7.97
2023-01-17T14:23:48.598Z,9.10
2023-01-17T14:26:43.139Z,7.85
2023-01-17T14:29:48.604Z,6.28
2023-01-17T14:32:19.652Z,9.63
2023-01-17T14:34:52.010Z,9.90
2023-01-17T14:37:29.040Z,5.38
2023-01-17T14:39:57.290Z,6.30
2023-01-17T14:42:28.456Z,8.88
2023-01-17T14:45:04.226Z,4.60
2023-01-17T14:47:34.969Z,8.82
2023-01-17T14:50:22.223Z,8.27
2023-01-17T14:53:07.396Z,4.82
2023-01-17T14:55:35.782Z,3.97
2023-01-17T14:58:04.017Z,3.47
2023-01-17T15:00:34.953Z,5.15
2023-01-17T15:03:04.093Z,6.78
2023-01-17T15:05:34.280Z,5.03
2023-01-17T15:08:02.706Z,3.63
2023-01-17T15:10:33.664Z,3.42
2023-01-17T15:13:10.114Z,5.05
2023-01-17T15:15:41.965Z,10.25
2023-01-17T15:18:19.145Z,7.32
2023-01-17T15:20:53.479Z,5.20
2023-01-17T15:23:23.783Z,6.00
2023-01-17T15:25:53.523Z,8.30
2023-01-17T15:28:21.611Z,7.38
2023-01-17T15:31:11.153Z,4.20
2023-01-17T15:33:41.322Z,3.60
2023-01-17T15:36:16.924Z,5.70
2023-01-17T15:38:51.548Z,7.70
2023-01-17T15:41:23.955Z,7.43
2023-01-17T15:43:57.460Z,5.83
2023-01-17T15:46:30.421Z,3.83
2023-01-17T15:49:17.381Z,6.53
2023-01-17T15:51:55.747Z,5.60
2023-01-17T15:54:41.506Z,5.43
2023-01-17T15:57:25.209Z,5.87
2023-01-17T15:59:56.262Z,5.60
2023-01-17T16:02:36.704Z,6.13
2023-01-17T16:05:33.349Z,6.03
2023-01-17T16:08:27.824Z,9.67
2023-01-17T16:10:59.210Z,8.80
2023-01-17T16:13:27.326Z,7.43
2023-01-17T16:15:55.528Z,4.70
2023-01-17T16:18:25.915Z,5.83
2023-01-17T16:20:59.683Z,7.37
2023-01-17T16:23:29.493Z,6.90
2023-01-17T16:25:57.639Z,6.47
2023-01-17T16:28:25.691Z,10.57
2023-01-17T16:30:54.017Z,8.10
2023-01-17T16:33:22.240Z,5.33
2023-01-17T16:35:51.256Z,9.57
2023-01-17T16:38:20.542Z,7.43
2023-01-17T16:40:50.039Z,4.80
2023-01-17T16:43:20.221Z,7.67
2023-01-17T16:45:50.533Z,4.90
2023-01-17T16:48:19.292Z,7.87
2023-01-17T16:50:50.708Z,6.20
2023-01-17T16:53:24.557Z,4.60
2023-01-17T16:55:56.377Z,8.00
2023-01-17T16:58:24.478Z,9.30
2023-01-17T17:00:52.615Z,7.27
2023-01-17T17:03:22.163Z,20.57
2023-01-17T17:05:56.777Z,11.30
2023-01-17T17:08:25.257Z,9.20
2023-01-17T17:10:54.687Z,7.23
2023-01-17T17:13:22.771Z,9.00
2023-01-17T17:15:51.116Z,9.70
2023-01-17T17:18:19.561Z,9.53
2023-01-17T17:20:49.549Z,11.47
2023-01-17T17:23:17.699Z,7.30
2023-01-17T17:25:45.859Z,10.10
2023-01-17T17:28:15.409Z,6.97
2023-01-17T17:30:43.474Z,7.70
2023-01-17T17:33:11.544Z,8.23
2023-01-17T17:35:39.580Z,12.80
2023-01-17T17:38:07.834Z,16.43
2023-01-17T17:40:36.198Z,8.33
2023-01-17T17:43:04.270Z,13.37
2023-01-17T17:45:33.869Z,11.83
2023-01-17T17:48:02.088Z,13.53
2023-01-17T17:50:30.179Z,10.33
2023-01-17T17:52:58.301Z,13.23
2023-01-17T17:55:28.721Z,9.03
2023-01-17T17:57:57.829Z,10.63
2023-01-17T18:00:27.275Z,7.70
2023-01-17T18:02:57.810Z,13.43
2023-01-17T18:05:25.944Z,12.60
2023-01-17T18:07:54.257Z,9.23
2023-01-17T18:10:22.725Z,9.90
2023-01-17T18:12:50.765Z,10.43
2023-01-17T18:15:20.797Z,7.73
2023-01-17T18:17:49.408Z,9.20
2023-01-17T18:20:19.008Z,11.43
2023-01-17T18:22:47.040Z,11.97
2023-01-17T18:25:15.399Z,10.83
2023-01-17T18:27:44.984Z,10.43
2023-01-17T18:30:13.805Z,13.17
2023-01-17T18:32:42.691Z,9.97
2023-01-17T18:35:11.134Z,9.60
2023-01-17T18:37:40.587Z,9.73
2023-01-17T18:40:09.616Z,9.90
2023-01-17T18:42:37.659Z,12.17
2023-01-17T18:45:06.642Z,14.20
2023-01-17T18:47:34.670Z,11.50
2023-01-17T18:50:02.690Z,8.90
2023-01-17T18:52:30.774Z,7.77
2023-01-17T18:55:00.174Z,12.50
2023-01-17T18:57:28.232Z,13.33
2023-01-17T18:59:57.194Z,11.27
2023-01-17T19:02:25.276Z,12.43
2023-01-17T19:04:53.513Z,13.53
2023-01-17T19:07:21.979Z,9.13
2023-01-17T19:09:50.049Z,10.73
2023-01-17T19:12:20.755Z,13.20
2023-01-17T19:14:48.867Z,11.23
2023-01-17T19:17:18.562Z,10.73
2023-01-17T19:19:46.643Z,9.63
2023-01-17T19:22:14.707Z,8.80
2023-01-17T19:24:42.869Z,6.73
2023-01-17T19:27:13.047Z,13.53
2023-01-17T19:29:42.485Z,9.07
2023-01-17T19:32:11.660Z,11.63
2023-01-17T19:34:39.699Z,13.03
2023-01-17T19:37:07.853Z,14.53
2023-01-17T19:39:35.943Z,11.30
2023-01-17T19:42:03.956Z,10.43
2023-01-17T19:44:31.984Z,12.33
2023-01-17T19:47:01.536Z,15.77
2023-01-17T19:49:29.686Z,10.33
2023-01-17T19:51:57.702Z,8.47
2023-01-17T19:54:26.017Z,10.03
2023-01-17T19:56:54.103Z,10.60
2023-01-17T19:59:22.663Z,9.40
2023-01-17T20:01:51.012Z,9.37
2023-01-17T20:04:21.122Z,10.83
2023-01-17T20:06:49.119Z,10.27
2023-01-17T20:09:17.153Z,8.40
2023-01-17T20:11:45.582Z,10.17
2023-01-17T20:14:16.544Z,9.23
2023-01-17T20:16:45.075Z,7.37
2023-01-17T20:19:13.146Z,9.87
2023-01-17T20:21:42.867Z,10.87
2023-01-17T20:24:13.544Z,8.20
2023-01-17T20:26:42.241Z,9.07
2023-01-17T20:29:14.299Z,11.10
2023-01-17T20:31:43.428Z,8.87
2023-01-17T20:34:12.948Z,9.87
2023-01-17T20:36:42.904Z,9.37
2023-01-17T20:39:13.792Z,9.13
2023-01-17T20:41:43.137Z,10.73
2023-01-17T20:44:13.960Z,10.27
2023-01-17T20:46:42.397Z,12.70
2023-01-17T20:49:14.828Z,9.57
2023-01-17T20:51:45.716Z,11.73
2023-01-17T20:54:15.495Z,12.07
2023-01-17T20:56:43.967Z,11.83
2023-01-17T20:59:15.162Z,8.93
2023-01-17T21:01:44.956Z,9.57
2023-01-17T21:04:14.776Z,11.17
2023-01-17T21:06:45.054Z,11.23
2023-01-17T21:09:15.076Z,11.50
2023-01-17T21:11:43.395Z,9.47
2023-01-17T21:14:11.505Z,9.50
2023-01-17T21:16:40.251Z,11.97
2023-01-17T21:19:11.948Z,11.30
2023-01-17T21:21:40.417Z,9.77
2023-01-17T21:24:15.091Z,10.57
2023-01-17T21:26:44.576Z,10.47
2023-01-17T21:29:13.428Z,11.87
2023-01-17T21:31:42.672Z,13.97
2023-01-17T21:34:13.807Z,23.47
2023-01-17T21:36:43.282Z,17.50
2023-01-17T21:39:15.797Z,13.17
2023-01-17T21:41:46.679Z,12.30
2023-01-17T21:44:19.276Z,12.07
2023-01-17T21:46:47.737Z,9.13
2023-01-17T21:49:17.234Z,11.13
2023-01-17T21:52:03.274Z,13.20
2023-01-17T21:54:50.630Z,8.80
2023-01-17T21:57:38.953Z,12.83
2023-01-17T22:00:08.453Z,11.20
2023-01-17T22:02:45.976Z,8.63
2023-01-17T22:05:16.430Z,11.43
2023-01-17T22:08:05.442Z,11.23
2023-01-17T22:10:44.518Z,7.93
2023-01-17T22:13:13.923Z,6.87
2023-01-17T22:15:42.235Z,6.40
2023-01-17T22:18:10.736Z,8.73
2023-01-17T22:20:41.423Z,9.97
2023-01-17T22:23:09.550Z,9.47
2023-01-17T22:25:38.963Z,7.97
2023-01-17T22:28:07.017Z,10.07
2023-01-17T22:30:35.050Z,7.07
2023-01-17T22:33:03.116Z,11.43
2023-01-17T22:35:31.183Z,11.40
2023-01-17T22:37:59.255Z,9.57
2023-01-17T22:40:27.871Z,9.77
2023-01-17T22:42:57.562Z,10.73
2023-01-17T22:45:26.069Z,8.57
2023-01-17T22:47:54.568Z,9.13
2023-01-17T22:50:23.388Z,10.17
2023-01-17T22:52:51.468Z,9.20
2023-01-17T22:55:19.505Z,8.67
2023-01-17T22:57:47.711Z,11.80
2023-01-17T23:00:17.949Z,10.67
2023-01-17T23:02:46.125Z,9.63
2023-01-17T23:05:14.264Z,8.13
2023-01-17T23:07:44.894Z,8.67
2023-01-17T23:10:34.001Z,8.80
2023-01-17T23:13:02.109Z,7.50
2023-01-17T23:15:49.106Z,5.97
2023-01-17T23:18:34.408Z,9.23
2023-01-17T23:21:02.433Z,11.43
2023-01-17T23:23:30.482Z,7.77
2023-01-17T23:26:01.304Z,10.80
2023-01-17T23:28:28.372Z,5.87
2023-01-17T23:31:03.038Z,7.90
2023-01-17T23:33:31.197Z,7.70
2023-01-17T23:35:59.228Z,10.40
2023-01-17T23:38:26.305Z,8.27
2023-01-17T23:41:08.582Z,11.30
2023-01-17T23:43:37.474Z,9.03
2023-01-17T23:46:11.671Z,6.27
2023-01-17T23:48:39.810Z,11.60
2023-01-17T23:51:08.327Z,6.20
2023-01-17T23:53:37.764Z,8.03
2023-01-17T23:56:10.681Z,9.67
2023-01-17T23:58:38.688Z,7.80
